^^
Station Historical Data
 
Daily Summary for September 18, 2018 Units:  English    Metric   Both
« Previous Day
Next Day »
Daily Weekly Monthly Yearly Custom
  Current: High: Low: Average:
Temperature: 67.4 °F 67.4 °F 41.2 °F 51.6 °F
Dew Point: 49.7 °F 51.7 °F 38.9 °F 45.5 °F
Humidity: 53% 94% 52% 81%
Wind Speed: 12mph 12mph 0mph 3.7mph
Wind Gust: 12mph 15mph - -
WindNE - - ESE
Pressure: 30.07 in 30.15 in 30.06 in -
Precipitation: 0 in      
Historical Graphs
 
 
Tabular Data for September 18, 2018
Time Temperature Dew Point Pressure Wind Wind Speed Wind Gust Humidity Rainfall Rate (Hourly) solar Conditions
00:04 51.1 °F 45.1 °F 30.09 in ENE 4 mph 8 mph 80% 0 in 0.00 W/m2
00:09 51.1 °F 45.1 °F 30.09 in ENE 7 mph 9 mph 80% 0 in 0.00 W/m2
00:14 51.5 °F 45.5 °F 30.09 in ENE 5 mph 10 mph 80% 0 in 0.00 W/m2
00:19 51.8 °F 45.8 °F 30.09 in East 5 mph 10 mph 80% 0 in 0.00 W/m2
00:24 51.8 °F 45.5 °F 30.09 in ENE 3 mph 8 mph 79% 0 in 0.00 W/m2
00:29 51.7 °F 45.4 °F 30.09 in ENE 5 mph 8 mph 79% 0 in 0.00 W/m2
00:34 51.6 °F 45.3 °F 30.10 in ENE 4 mph 9 mph 79% 0 in 0.00 W/m2
00:39 51.5 °F 45.5 °F 30.10 in NE 4 mph 9 mph 80% 0 in 0.00 W/m2
00:44 51.4 °F 45.4 °F 30.10 in ENE 5 mph 9 mph 80% 0 in 0.00 W/m2
00:49 51.2 °F 45.2 °F 30.10 in East 6 mph 8 mph 80% 0 in 0.00 W/m2
00:54 51.1 °F 45.5 °F 30.10 in ENE 5 mph 10 mph 81% 0 in 0.00 W/m2
00:59 51.1 °F 45.5 °F 30.11 in ENE 4 mph 10 mph 81% 0 in 0.00 W/m2
01:04 51 °F 45.4 °F 30.11 in NE 4 mph 8 mph 81% 0 in 0.00 W/m2
01:09 50.8 °F 45.2 °F 30.11 in ENE 7 mph 8 mph 81% 0 in 0.00 W/m2
01:14 50.6 °F 45 °F 30.11 in ENE 4 mph 8 mph 81% 0 in 0.00 W/m2
01:19 50.5 °F 45.2 °F 30.11 in ENE 5 mph 8 mph 82% 0 in 0.00 W/m2
01:24 50.4 °F 45.1 °F 30.11 in ENE 3 mph 8 mph 82% 0 in 0.00 W/m2
01:29 50.4 °F 45.4 °F 30.11 in East 7 mph 8 mph 83% 0 in 0.00 W/m2
01:34 50.5 °F 45.5 °F 30.11 in East 5 mph 10 mph 83% 0 in 0.00 W/m2
01:39 50.4 °F 45.4 °F 30.12 in ENE 4 mph 10 mph 83% 0 in 0.00 W/m2
01:44 50.2 °F 45.2 °F 30.12 in ENE 3 mph 7 mph 83% 0 in 0.00 W/m2
01:49 49.9 °F 44.9 °F 30.12 in ENE 5 mph 7 mph 83% 0 in 0.00 W/m2
01:54 49.6 °F 45 °F 30.11 in ENE 3 mph 7 mph 84% 0 in 0.00 W/m2
01:59 49.4 °F 44.8 °F 30.12 in ENE 2 mph 7 mph 84% 0 in 0.00 W/m2
02:04 49.2 °F 44.9 °F 30.12 in ENE 3 mph 7 mph 85% 0 in 0.00 W/m2
02:09 48.9 °F 44.3 °F 30.12 in ENE 2 mph 5 mph 84% 0 in 0.00 W/m2
02:14 48.2 °F 43.6 °F 30.12 in Calm   4 mph 84% 0 in 0.00 W/m2
02:19 47.8 °F 43.5 °F 30.12 in ENE 2 mph 4 mph 85% 0 in 0.00 W/m2
02:24 47.7 °F 43.7 °F 30.11 in ENE 3 mph 5 mph 86% 0 in 0.00 W/m2
02:29 47.6 °F 43.6 °F 30.11 in East 2 mph 7 mph 86% 0 in 0.00 W/m2
02:34 47.5 °F 43.8 °F 30.11 in ENE 3 mph 7 mph 87% 0 in 0.00 W/m2
02:39 47.5 °F 43.8 °F 30.11 in ENE 3 mph 6 mph 87% 0 in 0.00 W/m2
02:44 47.4 °F 43.7 °F 30.11 in ENE 3 mph 6 mph 87% 0 in 0.00 W/m2
02:49 47.3 °F 43.6 °F 30.11 in ENE 2 mph 5 mph 87% 0 in 0.00 W/m2
02:54 47.1 °F 43.4 °F 30.11 in NE 3 mph 6 mph 87% 0 in 0.00 W/m2
02:59 47 °F 43.6 °F 30.11 in NE 4 mph 6 mph 88% 0 in 0.00 W/m2
03:04 46.8 °F 43.1 °F 30.11 in Calm   5 mph 87% 0 in 0.00 W/m2
03:09 46.5 °F 42.8 °F 30.11 in East 2 mph 4 mph 87% 0 in 0.00 W/m2
03:14 46.2 °F 42.8 °F 30.11 in ESE 2 mph 3 mph 88% 0 in 0.00 W/m2
03:19 46 °F 42.6 °F 30.11 in East 3 mph 5 mph 88% 0 in 0.00 W/m2
03:24 46 °F 42.9 °F 30.11 in ESE 5 mph 6 mph 89% 0 in 0.00 W/m2
03:29 46 °F 42.9 °F 30.11 in ENE 5 mph 8 mph 89% 0 in 0.00 W/m2
03:34 46.1 °F 43 °F 30.11 in ENE 2 mph 8 mph 89% 0 in 0.00 W/m2
03:39 46.1 °F 43 °F 30.11 in East 2 mph 6 mph 89% 0 in 0.00 W/m2
03:44 46 °F 42.9 °F 30.11 in ENE 3 mph 5 mph 89% 0 in 0.00 W/m2
03:49 45.9 °F 42.8 °F 30.11 in ENE 2 mph 5 mph 89% 0 in 0.00 W/m2
03:54 45.8 °F 42.7 °F 30.11 in ENE 5 mph 5 mph 89% 0 in 0.00 W/m2
03:59 45.6 °F 42.5 °F 30.11 in NE 4 mph 5 mph 89% 0 in 0.00 W/m2
04:04 45.5 °F 42.4 °F 30.11 in ENE 2 mph 5 mph 89% 0 in 0.00 W/m2
04:09 45.4 °F 42.6 °F 30.11 in NE 5 mph 7 mph 90% 0 in 0.00 W/m2
04:14 45.4 °F 42.6 °F 30.11 in NE 5 mph 9 mph 90% 0 in 0.00 W/m2
04:19 45.5 °F 42.7 °F 30.11 in ENE 8 mph 9 mph 90% 0 in 0.00 W/m2
04:24 45.5 °F 42.7 °F 30.11 in ENE 7 mph 9 mph 90% 0 in 0.00 W/m2
04:29 45.5 °F 42.7 °F 30.11 in NE 4 mph 9 mph 90% 0 in 0.00 W/m2
04:34 45.4 °F 42.6 °F 30.11 in ENE 2 mph 8 mph 90% 0 in 0.00 W/m2
04:39 45.3 °F 42.5 °F 30.11 in ENE 3 mph 7 mph 90% 0 in 0.00 W/m2
04:44 45 °F 42.2 °F 30.11 in East 2 mph 5 mph 90% 0 in 0.00 W/m2
04:49 44.9 °F 42.1 °F 30.11 in East 3 mph 6 mph 90% 0 in 0.00 W/m2
04:54 45 °F 42.5 °F 30.11 in ENE 3 mph 6 mph 91% 0 in 0.00 W/m2
04:59 45.1 °F 42.6 °F 30.11 in NE 5 mph 7 mph 91% 0 in 0.00 W/m2
05:04 45.2 °F 42.7 °F 30.11 in ENE 3 mph 8 mph 91% 0 in 0.00 W/m2
05:09 45.3 °F 42.8 °F 30.11 in ENE 3 mph 8 mph 91% 0 in 0.00 W/m2
05:14 45.2 °F 42.4 °F 30.11 in East 3 mph 8 mph 90% 0 in 0.00 W/m2
05:19 44.9 °F 42.1 °F 30.11 in Calm   5 mph 90% 0 in 0.00 W/m2
05:24 44.7 °F 41.9 °F 30.11 in East 3 mph 3 mph 90% 0 in 0.00 W/m2
05:29 44.5 °F 41.7 °F 30.11 in NE 4 mph 5 mph 90% 0 in 0.00 W/m2
05:34 44.2 °F 41.5 °F 30.11 in NE 4 mph 7 mph 90% 0 in 0.00 W/m2
05:39 44.4 °F 41.9 °F 30.11 in East 1 mph 7 mph 91% 0 in 0.00 W/m2
05:44 44.3 °F 41.6 °F 30.11 in SE 3 mph 7 mph 90% 0 in 0.00 W/m2
05:49 44.3 °F 41.8 °F 30.11 in ENE 4 mph 7 mph 91% 0 in 0.00 W/m2
05:54 44.7 °F 42.2 °F 30.11 in East 5 mph 7 mph 91% 0 in 0.00 W/m2
05:59 44.4 °F 41.7 °F 30.11 in SE 4 mph 7 mph 90% 0 in 0.00 W/m2
06:04 43.9 °F 41.2 °F 30.11 in East 5 mph 6 mph 90% 0 in 0.00 W/m2
06:09 43.7 °F 41.2 °F 30.11 in ESE 5 mph 7 mph 91% 0 in 0.00 W/m2
06:14 43.7 °F 41.2 °F 30.12 in ESE 5 mph 7 mph 91% 0 in 0.00 W/m2
06:19 43.6 °F 41.1 °F 30.12 in ESE 5 mph 7 mph 91% 0 in 0.00 W/m2
06:24 43.4 °F 40.9 °F 30.11 in ESE 3 mph 7 mph 91% 0 in 0.00 W/m2
06:29 43.2 °F 40.8 °F 30.11 in East 5 mph 6 mph 91% 0 in 0.00 W/m2
06:34 43.1 °F 40.7 °F 30.11 in ESE 4 mph 7 mph 91% 0 in 0.00 W/m2
06:39 42.9 °F 40.5 °F 30.11 in ESE 3 mph 7 mph 91% 0 in 0.00 W/m2
06:44 42.8 °F 40.4 °F 30.11 in East 5 mph 5 mph 91% 0 in 0.00 W/m2
06:49 42.7 °F 40.5 °F 30.11 in East 3 mph 5 mph 92% 0 in 0.00 W/m2
06:54 42.8 °F 40.6 °F 30.11 in East 2 mph 5 mph 92% 0 in 0.00 W/m2
06:59 42.7 °F 40.5 °F 30.11 in East 2 mph 5 mph 92% 0 in 0.00 W/m2
07:04 42.6 °F 40.4 °F 30.11 in ENE 2 mph 3 mph 92% 0 in 0.00 W/m2
07:09 42.5 °F 40.3 °F 30.11 in ENE 2 mph 4 mph 92% 0 in 0.00 W/m2
07:14 42.4 °F 40.2 °F 30.12 in East 1 mph 5 mph 92% 0 in 0.00 W/m2
07:19 42.2 °F 39.8 °F 30.12 in Calm   5 mph 91% 0 in 0.00 W/m2
07:24 41.9 °F 39.5 °F 30.12 in East 1 mph 2 mph 91% 0 in 0.00 W/m2
07:29 41.6 °F 39.2 °F 30.12 in Calm   2 mph 91% 0 in 7.00 W/m2
07:34 41.3 °F 38.9 °F 30.12 in East 2 mph 2 mph 91% 0 in 11.00 W/m2
07:39 41.2 °F 39.1 °F 30.12 in East 2 mph 3 mph 92% 0 in 12.00 W/m2
07:44 41.2 °F 39.1 °F 30.12 in East 2 mph 3 mph 92% 0 in 16.00 W/m2
07:49 41.2 °F 39.1 °F 30.13 in East 2 mph 3 mph 92% 0 in 19.00 W/m2
07:54 41.2 °F 39.3 °F 30.13 in Calm     93% 0 in 21.00 W/m2
07:59 41.4 °F 39.5 °F 30.13 in Calm     93% 0 in 25.00 W/m2
08:04 41.6 °F 39.7 °F 30.13 in East 2 mph 2 mph 93% 0 in 26.00 W/m2
08:09 41.7 °F 39.8 °F 30.14 in Calm   3 mph 93% 0 in 30.00 W/m2
08:14 42 °F 40.4 °F 30.14 in ESE 2 mph 3 mph 94% 0 in 33.00 W/m2
08:19 42.3 °F 40.7 °F 30.15 in South 2 mph 4 mph 94% 0 in 40.00 W/m2
08:24 42.5 °F 40.9 °F 30.15 in Calm   4 mph 94% 0 in 51.00 W/m2
08:29 42.7 °F 41.1 °F 30.14 in South 2 mph 3 mph 94% 0 in 102.00 W/m2
08:34 43.2 °F 41.6 °F 30.14 in NNE 1 mph 4 mph 94% 0 in 65.00 W/m2
08:39 43.8 °F 42.2 °F 30.14 in NNE 3 mph 4 mph 94% 0 in 95.00 W/m2
08:44 44.4 °F 42.8 °F 30.14 in ENE 3 mph 4 mph 94% 0 in 69.00 W/m2
08:49 45 °F 43.4 °F 30.14 in NE 3 mph 4 mph 94% 0 in 74.00 W/m2
08:54 45.6 °F 44 °F 30.13 in NE 2 mph 4 mph 94% 0 in 127.00 W/m2
08:59 46.3 °F 44.7 °F 30.13 in NE 2 mph 5 mph 94% 0 in 83.00 W/m2
09:04 46.8 °F 44.9 °F 30.13 in NE 3 mph 5 mph 93% 0 in 165.00 W/m2
09:09 47.4 °F 45.2 °F 30.12 in NE 4 mph 5 mph 92% 0 in 127.00 W/m2
09:14 48 °F 45.8 °F 30.12 in ENE 4 mph 5 mph 92% 0 in 185.00 W/m2
09:19 48.9 °F 46.7 °F 30.12 in NE 5 mph 6 mph 92% 0 in 214.00 W/m2
09:24 49.8 °F 47.3 °F 30.12 in NNE 4 mph 6 mph 91% 0 in 178.00 W/m2
09:29 50.2 °F 47.1 °F 30.12 in NNW 2 mph 6 mph 89% 0 in 267.00 W/m2
09:34 50.1 °F 46.7 °F 30.13 in WNW 2 mph 4 mph 88% 0 in 269.00 W/m2
09:39 49.8 °F 46.4 °F 30.13 in WNW 3 mph 4 mph 88% 0 in 306.00 W/m2
09:44 49.7 °F 46.6 °F 30.14 in NW 3 mph 5 mph 89% 0 in 334.00 W/m2
09:49 50 °F 46.9 °F 30.14 in NW 3 mph 5 mph 89% 0 in 373.00 W/m2
09:54 50.6 °F 47.5 °F 30.13 in NNW 5 mph 5 mph 89% 0 in 153.00 W/m2
09:59 51 °F 47.6 °F 30.13 in NNW 2 mph 6 mph 88% 0 in 123.00 W/m2
10:04 51.1 °F 47.1 °F 30.12 in NNW 4 mph 6 mph 86% 0 in 206.00 W/m2
10:09 51.4 °F 47.4 °F 30.11 in North 3 mph 6 mph 86% 0 in 186.00 W/m2
10:14 51.9 °F 47.5 °F 30.12 in NNE 1 mph 6 mph 85% 0 in 185.00 W/m2
10:19 52.1 °F 47.1 °F 30.13 in North 1 mph 6 mph 83% 0 in 160.00 W/m2
10:24 52.2 °F 46.9 °F 30.14 in North 1 mph 4 mph 82% 0 in 378.00 W/m2
10:29 52.5 °F 46.8 °F 30.14 in NNW 2 mph 4 mph 81% 0 in 359.00 W/m2
10:34 53.3 °F 47.6 °F 30.14 in NNW 1 mph 4 mph 81% 0 in 350.00 W/m2
10:39 54 °F 48 °F 30.14 in NNW 1 mph 5 mph 80% 0 in 229.00 W/m2
10:44 54.7 °F 48.3 °F 30.14 in NNW 3 mph 5 mph 79% 0 in 424.00 W/m2
10:49 55.3 °F 48.6 °F 30.14 in NW 3 mph 5 mph 78% 0 in 434.00 W/m2
10:54 55.6 °F 49.2 °F 30.14 in SW 1 mph 6 mph 79% 0 in 334.00 W/m2
10:59 55.5 °F 48.8 °F 30.14 in WSW 3 mph 6 mph 78% 0 in 232.00 W/m2
11:04 55.1 °F 48.4 °F 30.14 in WSW 6 mph 6 mph 78% 0 in 336.00 W/m2
11:09 55.2 °F 48.8 °F 30.14 in WSW 4 mph 7 mph 79% 0 in 496.00 W/m2
11:14 55.7 °F 49.6 °F 30.14 in SSW 4 mph 7 mph 80% 0 in 448.00 W/m2
11:19 55.8 °F 49.4 °F 30.13 in WSW 3 mph 7 mph 79% 0 in 441.00 W/m2
11:24 56.3 °F 49.9 °F 30.13 in Calm   7 mph 79% 0 in 469.00 W/m2
11:29 56.6 °F 49.1 °F 30.13 in SSW 2 mph 6 mph 76% 0 in 504.00 W/m2
11:34 56.8 °F 49.7 °F 30.13 in SW 5 mph 5 mph 77% 0 in 489.00 W/m2
11:39 56.9 °F 49.8 °F 30.12 in WSW 3 mph 5 mph 77% 0 in 450.00 W/m2
11:44 57.2 °F 50.1 °F 30.12 in SW 2 mph 5 mph 77% 0 in 485.00 W/m2
11:49 57.6 °F 50.1 °F 30.13 in SSW 2 mph 4 mph 76% 0 in 403.00 W/m2
11:54 57.7 °F 50.2 °F 30.13 in WSW 5 mph 6 mph 76% 0 in 439.00 W/m2
11:59 57.8 °F 50.3 °F 30.13 in SSW 4 mph 8 mph 76% 0 in 534.00 W/m2
12:04 58.3 °F 50.4 °F 30.13 in Calm   8 mph 75% 0 in 352.00 W/m2
12:09 58.6 °F 50 °F 30.13 in West 4 mph 6 mph 73% 0 in 320.00 W/m2
12:14 58.3 °F 50.4 °F 30.13 in WSW 1 mph 6 mph 75% 0 in 408.00 W/m2
12:19 58.7 °F 50.4 °F 30.13 in SW 3 mph 6 mph 74% 0 in 404.00 W/m2
12:24 59.4 °F 50.7 °F 30.13 in SW 2 mph 5 mph 73% 0 in 543.00 W/m2
12:29 59.8 °F 48.8 °F 30.13 in ENE 9 mph 11 mph 67% 0 in 411.00 W/m2
12:34 60.9 °F 48.6 °F 30.13 in ENE 7 mph 11 mph 64% 0 in 378.00 W/m2
12:39 61.7 °F 49.8 °F 30.13 in North 2 mph 9 mph 65% 0 in 394.00 W/m2
12:44 62.3 °F 49.5 °F 30.14 in NNW 7 mph 10 mph 63% 0 in 325.00 W/m2
12:49 62.5 °F 48.4 °F 30.14 in ENE 3 mph 11 mph 60% 0 in 265.00 W/m2
12:54 62.6 °F 49 °F 30.14 in ESE 1 mph 11 mph 61% 0 in 260.00 W/m2
12:59 62.5 °F 48.4 °F 30.14 in East 2 mph 4 mph 60% 0 in 281.00 W/m2
13:04 62 °F 50.5 °F 30.14 in WSW 4 mph 5 mph 66% 0 in 258.00 W/m2
13:09 60.7 °F 50.5 °F 30.14 in WSW 7 mph 7 mph 69% 0 in 248.00 W/m2
13:14 59.7 °F 50.3 °F 30.14 in SW 5 mph 8 mph 71% 0 in 206.00 W/m2
13:19 59.2 °F 50.2 °F 30.14 in SW 7 mph 9 mph 72% 0 in 162.00 W/m2
13:24 58.8 °F 49.8 °F 30.14 in SW 7 mph 9 mph 72% 0 in 160.00 W/m2
13:29 58.5 °F 49.9 °F 30.14 in SW 6 mph 8 mph 73% 0 in 243.00 W/m2
13:34 58.9 °F 50.6 °F 30.14 in WSW 7 mph 8 mph 74% 0 in 322.00 W/m2
13:39 59.3 °F 50.6 °F 30.14 in SSW 5 mph 9 mph 73% 0 in 288.00 W/m2
13:44 59.9 °F 50.8 °F 30.13 in SW 3 mph 9 mph 72% 0 in 278.00 W/m2
13:49 60.2 °F 50.8 °F 30.13 in WSW 6 mph 8 mph 71% 0 in 246.00 W/m2
13:54 60.4 °F 51.3 °F 30.13 in SW 3 mph 8 mph 72% 0 in 701.00 W/m2
13:59 61.2 °F 51.3 °F 30.12 in West 3 mph 7 mph 70% 0 in 288.00 W/m2
14:04 61.5 °F 50.8 °F 30.12 in SSE 1 mph 7 mph 68% 0 in 490.00 W/m2
14:09 61.9 °F 51.2 °F 30.12 in South 3 mph 6 mph 68% 0 in 343.00 W/m2
14:14 62.4 °F 51.3 °F 30.11 in WSW 5 mph 6 mph 67% 0 in 682.00 W/m2
14:19 62.8 °F 51.7 °F 30.11 in East 6 mph 6 mph 67% 0 in 677.00 W/m2
14:24 63.7 °F 50 °F 30.11 in ENE 7 mph 8 mph 61% 0 in 647.00 W/m2
14:29 65.1 °F 50.9 °F 30.11 in ENE 7 mph 11 mph 60% 0 in 661.00 W/m2
14:34 65.9 °F 50.7 °F 30.11 in ENE 10 mph 12 mph 58% 0 in 652.00 W/m2
14:39 65.9 °F 49.3 °F 30.10 in ENE 4 mph 14 mph 55% 0 in 659.00 W/m2
14:44 65.6 °F 49 °F 30.10 in NE 8 mph 14 mph 55% 0 in 659.00 W/m2
14:49 65.8 °F 49.7 °F 30.10 in ENE 8 mph 13 mph 56% 0 in 631.00 W/m2
14:54 66 °F 50.3 °F 30.09 in East 3 mph 11 mph 57% 0 in 631.00 W/m2
14:59 66.1 °F 50.4 °F 30.09 in East 8 mph 13 mph 57% 0 in 675.00 W/m2
15:04 66 °F 49.8 °F 30.09 in ESE 5 mph 13 mph 56% 0 in 541.00 W/m2
15:09 66.2 °F 50 °F 30.08 in East 6 mph 10 mph 56% 0 in 652.00 W/m2
15:14 66.5 °F 49.8 °F 30.08 in ENE 9 mph 14 mph 55% 0 in 802.00 W/m2
15:19 66.8 °F 49.6 °F 30.08 in East 7 mph 14 mph 54% 0 in 461.00 W/m2
15:24 66.5 °F 48.8 °F 30.07 in East 8 mph 14 mph 53% 0 in 492.00 W/m2
15:29 66.2 °F 49.1 °F 30.07 in ENE 5 mph 14 mph 54% 0 in 380.00 W/m2
15:34 66 °F 48.9 °F 30.07 in ENE 7 mph 15 mph 54% 0 in 410.00 W/m2
15:39 66.2 °F 49.6 °F 30.07 in NNE 5 mph 15 mph 55% 0 in 749.00 W/m2
15:44 66.9 °F 49.2 °F 30.06 in NE 8 mph 12 mph 53% 0 in 606.00 W/m2
15:49 67.1 °F 48.9 °F 30.06 in NE 9 mph 14 mph 52% 0 in 524.00 W/m2
15:54 67.1 °F 48.9 °F 30.07 in ENE 5 mph 14 mph 52% 0 in 497.00 W/m2
15:59 67.1 °F 49.4 °F 30.07 in NE 8 mph 13 mph 53% 0 in 520.00 W/m2
16:04 67.4 °F 49.7 °F 30.07 in NE 12 mph 12 mph 53% 0 in 527.00 W/m2
Bismarck, North Dakota, USA
Compliments of Weather Underground - 4 mb